createdAt,value
2017-11-20T00:01:10.278Z,0.00
2017-11-20T00:02:10.254Z,0.00
2017-11-20T00:04:03.633Z,0.00
2017-11-20T00:05:03.633Z,0.00
2017-11-20T00:06:57.031Z,0.00
2017-11-20T00:07:57.013Z,0.00
2017-11-20T00:09:50.411Z,0.00
2017-11-20T00:10:50.391Z,0.00
2017-11-20T00:12:43.791Z,0.00
2017-11-20T00:13:43.777Z,0.00
2017-11-20T00:15:37.152Z,0.00
2017-11-20T00:16:37.152Z,0.00
2017-11-20T00:18:30.561Z,0.00
2017-11-20T00:19:30.544Z,0.00
2017-11-20T00:21:23.925Z,0.00
2017-11-20T00:22:23.924Z,0.00
2017-11-20T00:24:17.323Z,0.00
2017-11-20T00:25:17.305Z,0.00
2017-11-20T00:27:10.684Z,0.00
2017-11-20T00:28:10.685Z,0.00
2017-11-20T00:30:04.086Z,0.00
2017-11-20T00:31:04.063Z,0.00
2017-11-20T00:32:57.447Z,0.00
2017-11-20T00:33:57.448Z,0.00
2017-11-20T00:35:50.992Z,0.00
2017-11-20T00:36:50.825Z,0.00
2017-11-20T00:38:44.246Z,0.00
2017-11-20T00:39:44.256Z,0.00
2017-11-20T00:41:37.644Z,0.00
2017-11-20T00:42:37.634Z,0.00
2017-11-20T00:44:31.007Z,0.00
2017-11-20T00:45:31.007Z,0.00
2017-11-20T00:47:24.493Z,0.00
2017-11-20T00:48:24.471Z,0.00
2017-11-20T00:50:17.849Z,0.00
2017-11-20T00:51:17.848Z,0.00
2017-11-20T00:53:11.248Z,0.00
2017-11-20T00:54:11.229Z,0.00
2017-11-20T00:56:04.624Z,0.00
2017-11-20T00:57:04.609Z,0.00
2017-11-20T00:58:58.006Z,0.00
2017-11-20T00:59:57.991Z,0.00
2017-11-20T01:01:51.367Z,0.00
2017-11-20T01:02:51.380Z,0.00
2017-11-20T01:04:44.767Z,0.00
2017-11-20T01:05:44.755Z,0.00
2017-11-20T01:07:38.130Z,0.00
2017-11-20T01:08:38.132Z,0.00
2017-11-20T01:10:31.528Z,0.00
2017-11-20T01:11:31.510Z,0.00
2017-11-20T01:13:24.910Z,0.00
2017-11-20T01:14:24.899Z,0.00
2017-11-20T01:16:18.269Z,0.00
2017-11-20T01:17:18.269Z,0.00
2017-11-20T01:19:11.665Z,0.00
2017-11-20T01:20:11.650Z,0.00
2017-11-20T01:22:05.022Z,0.00
2017-11-20T01:23:05.024Z,0.00
2017-11-20T01:24:58.423Z,0.00
2017-11-20T01:25:58.406Z,0.00
2017-11-20T01:27:51.786Z,0.00
2017-11-20T01:28:51.784Z,0.00
2017-11-20T01:30:45.192Z,0.00
2017-11-20T01:31:45.168Z,0.00
2017-11-20T01:33:38.542Z,0.00
2017-11-20T01:34:38.543Z,0.00
2017-11-20T01:36:31.940Z,0.00
2017-11-20T01:37:31.920Z,0.00
2017-11-20T01:39:25.299Z,0.00
2017-11-20T01:40:25.301Z,0.00
2017-11-20T01:42:18.698Z,0.00
2017-11-20T01:43:18.684Z,0.00
2017-11-20T01:45:12.064Z,0.00
2017-11-20T01:46:12.056Z,0.00
2017-11-20T01:48:05.459Z,0.00
2017-11-20T01:49:05.439Z,0.00
2017-11-20T01:50:58.836Z,0.00
2017-11-20T01:51:58.813Z,0.00
2017-11-20T01:53:52.192Z,0.00
2017-11-20T01:54:52.189Z,0.00
2017-11-20T01:56:45.592Z,0.00
2017-11-20T01:57:45.570Z,0.00
2017-11-20T01:59:38.952Z,0.00
2017-11-20T02:00:38.946Z,0.00
2017-11-20T02:02:32.349Z,0.00
2017-11-20T02:03:32.325Z,0.00
2017-11-20T02:05:25.707Z,0.00
2017-11-20T02:06:25.704Z,0.00
2017-11-20T02:08:19.104Z,0.00
2017-11-20T02:09:19.084Z,0.00
2017-11-20T02:11:12.468Z,0.00
2017-11-20T02:12:12.465Z,0.00
2017-11-20T02:14:05.863Z,0.00
2017-11-20T02:15:05.842Z,0.00
2017-11-20T02:16:59.221Z,0.00
2017-11-20T02:17:59.218Z,0.00
2017-11-20T02:19:52.627Z,0.00
2017-11-20T02:20:52.600Z,0.00
2017-11-20T02:22:45.978Z,0.00
2017-11-20T02:23:45.994Z,0.00
2017-11-20T02:25:39.372Z,0.00
2017-11-20T02:26:39.358Z,0.00
2017-11-20T02:28:32.733Z,0.00
2017-11-20T02:29:32.737Z,0.00
2017-11-20T02:31:26.127Z,0.00
2017-11-20T02:32:26.112Z,0.00
2017-11-20T02:34:19.510Z,0.00
2017-11-20T02:35:19.493Z,0.00
2017-11-20T02:37:12.869Z,0.00
2017-11-20T02:38:12.870Z,0.00
2017-11-20T02:40:06.289Z,0.00
2017-11-20T02:41:06.268Z,0.00
2017-11-20T02:42:59.661Z,0.00
2017-11-20T02:43:59.642Z,0.00
2017-11-20T02:45:53.049Z,0.00
2017-11-20T02:46:53.036Z,0.00
2017-11-20T02:48:46.412Z,0.00
2017-11-20T02:49:46.429Z,0.00
2017-11-20T02:51:39.808Z,0.00
2017-11-20T02:52:39.790Z,0.00
2017-11-20T02:54:33.168Z,0.00
2017-11-20T02:55:33.164Z,0.00
2017-11-20T02:57:26.561Z,0.00
2017-11-20T02:58:26.561Z,0.00
2017-11-20T03:00:19.931Z,0.00
2017-11-20T03:01:19.921Z,0.00
2017-11-20T03:03:13.333Z,0.00
2017-11-20T03:04:13.300Z,0.00
2017-11-20T03:06:06.683Z,0.00
2017-11-20T03:07:06.680Z,0.00
2017-11-20T03:09:00.078Z,0.00
2017-11-20T03:10:00.056Z,0.00
2017-11-20T03:11:53.434Z,0.00
2017-11-20T03:12:53.433Z,0.00
2017-11-20T03:14:46.838Z,0.00
2017-11-20T03:15:46.816Z,0.00
2017-11-20T03:17:40.191Z,0.00
2017-11-20T03:18:40.196Z,0.00
2017-11-20T03:20:33.593Z,0.00
2017-11-20T03:21:33.584Z,0.00
2017-11-20T03:23:26.963Z,0.00
2017-11-20T03:24:26.952Z,0.00
2017-11-20T03:26:20.348Z,0.00
2017-11-20T03:27:20.330Z,0.00
2017-11-20T03:29:13.713Z,0.00
2017-11-20T03:30:13.712Z,0.00
2017-11-20T03:32:07.105Z,0.00
2017-11-20T03:33:07.092Z,0.00
2017-11-20T03:35:00.482Z,0.00
2017-11-20T03:36:00.459Z,0.00
2017-11-20T03:37:53.840Z,0.00
2017-11-20T03:38:53.840Z,0.00
2017-11-20T03:40:47.233Z,0.00
2017-11-20T03:41:47.216Z,0.00
2017-11-20T03:43:40.595Z,0.00
2017-11-20T03:44:40.594Z,0.00
2017-11-20T03:46:34.007Z,0.00
2017-11-20T03:47:33.981Z,0.00
2017-11-20T03:49:27.364Z,0.00
2017-11-20T03:50:27.357Z,0.00
2017-11-20T03:52:20.951Z,0.00
2017-11-20T03:53:20.762Z,0.00
2017-11-20T03:55:14.139Z,0.00
2017-11-20T03:56:14.136Z,0.00
2017-11-20T03:58:07.542Z,0.00
2017-11-20T03:59:07.519Z,0.00
2017-11-20T04:01:00.902Z,0.00
2017-11-20T04:02:00.900Z,0.00
2017-11-20T04:03:54.300Z,0.00
2017-11-20T04:04:54.291Z,0.00
2017-11-20T04:06:47.658Z,0.00
2017-11-20T04:07:47.667Z,0.00
2017-11-20T04:09:41.050Z,0.00
2017-11-20T04:10:41.038Z,0.00
2017-11-20T04:12:34.410Z,0.00
2017-11-20T04:13:34.410Z,0.00
2017-11-20T04:15:27.806Z,0.00
2017-11-20T04:16:27.787Z,0.00
2017-11-20T04:18:21.166Z,0.00
2017-11-20T04:19:21.166Z,0.00
2017-11-20T04:21:14.557Z,0.00
2017-11-20T04:22:14.539Z,0.00
2017-11-20T04:24:07.930Z,0.00
2017-11-20T04:25:07.926Z,0.00
2017-11-20T04:27:01.322Z,0.00
2017-11-20T04:28:01.307Z,0.00
2017-11-20T04:29:54.685Z,0.00
2017-11-20T04:30:54.688Z,0.00
2017-11-20T04:32:49.086Z,0.00
2017-11-20T04:33:49.062Z,0.00
2017-11-20T04:35:42.462Z,0.00
2017-11-20T04:36:42.439Z,0.00
2017-11-20T04:38:35.828Z,0.00
2017-11-20T04:39:35.830Z,0.00
2017-11-20T04:41:29.235Z,0.00
2017-11-20T04:42:29.228Z,0.00
2017-11-20T04:44:22.584Z,0.00
2017-11-20T04:45:22.582Z,0.00
2017-11-20T04:47:15.978Z,0.00
2017-11-20T04:48:15.961Z,0.00
2017-11-20T04:50:09.343Z,0.00
2017-11-20T04:51:09.342Z,0.00
2017-11-20T04:53:02.737Z,0.00
2017-11-20T04:54:02.716Z,0.00
2017-11-20T04:55:56.104Z,0.00
2017-11-20T04:56:56.102Z,0.00
2017-11-20T04:58:49.505Z,0.00
2017-11-20T04:59:49.497Z,0.00
2017-11-20T05:01:42.856Z,0.00
2017-11-20T05:02:42.869Z,0.00
2017-11-20T05:04:36.254Z,0.00
2017-11-20T05:05:36.236Z,0.00
2017-11-20T05:07:29.620Z,0.00
2017-11-20T05:08:29.621Z,0.00
2017-11-20T05:10:23.022Z,0.00
2017-11-20T05:11:23.007Z,0.00
2017-11-20T05:13:16.380Z,0.00
2017-11-20T05:14:16.377Z,0.00
2017-11-20T05:16:09.861Z,0.00
2017-11-20T05:17:09.754Z,0.00
2017-11-20T05:19:03.134Z,0.00
2017-11-20T05:20:03.256Z,0.00
2017-11-20T05:21:56.528Z,0.00
2017-11-20T05:22:56.506Z,0.00
2017-11-20T05:24:49.937Z,0.00
2017-11-20T05:25:49.894Z,0.00
2017-11-20T05:27:43.300Z,0.00
2017-11-20T05:28:43.268Z,0.00
2017-11-20T05:30:36.682Z,0.00
2017-11-20T05:31:36.665Z,0.00
2017-11-20T05:33:30.068Z,0.00
2017-11-20T05:34:30.051Z,0.00
2017-11-20T05:36:23.447Z,0.00
2017-11-20T05:37:23.419Z,0.00
2017-11-20T05:39:16.795Z,0.00
2017-11-20T05:40:16.804Z,0.00
2017-11-20T05:42:10.197Z,0.00
2017-11-20T05:43:10.174Z,0.00
2017-11-20T05:45:03.556Z,0.00
2017-11-20T05:46:03.555Z,0.00
2017-11-20T05:47:56.961Z,0.00
2017-11-20T05:48:56.939Z,0.00
2017-11-20T05:50:50.318Z,0.00
2017-11-20T05:51:50.321Z,0.00
2017-11-20T05:53:43.708Z,0.00
2017-11-20T05:54:43.702Z,0.00
2017-11-20T05:56:37.077Z,0.00
2017-11-20T05:57:37.068Z,0.00
2017-11-20T05:59:30.485Z,0.00
2017-11-20T06:00:30.450Z,0.00
2017-11-20T06:02:23.829Z,0.00
2017-11-20T06:03:23.860Z,0.00
2017-11-20T06:05:17.265Z,4.00
2017-11-20T06:06:17.249Z,4.00
2017-11-20T06:08:10.647Z,0.00
2017-11-20T06:09:10.629Z,4.00
2017-11-20T06:11:04.040Z,4.00
2017-11-20T06:12:04.016Z,4.00
2017-11-20T06:13:57.417Z,4.00
2017-11-20T06:14:57.409Z,4.00
2017-11-20T06:16:50.777Z,4.00
2017-11-20T06:17:50.773Z,8.00
2017-11-20T06:19:44.178Z,8.00
2017-11-20T06:20:44.156Z,12.00
2017-11-20T06:22:37.532Z,16.00
2017-11-20T06:23:37.537Z,20.00
2017-11-20T06:25:30.945Z,20.00
2017-11-20T06:26:30.913Z,24.00
2017-11-20T06:28:24.298Z,28.00
2017-11-20T06:29:24.288Z,32.00
2017-11-20T06:31:17.697Z,44.00
2017-11-20T06:32:17.672Z,48.00
2017-11-20T06:34:11.052Z,56.00
2017-11-20T06:35:11.065Z,60.00
2017-11-20T06:37:04.449Z,68.00
2017-11-20T06:38:04.429Z,72.00
2017-11-20T06:39:57.822Z,84.00
2017-11-20T06:40:57.811Z,92.00
2017-11-20T06:42:51.216Z,108.00
2017-11-20T06:43:51.199Z,116.00
2017-11-20T06:45:44.600Z,136.00
2017-11-20T06:46:44.583Z,152.00
2017-11-20T06:48:37.977Z,180.00
2017-11-20T06:49:37.973Z,196.00
2017-11-20T06:51:31.363Z,232.00
2017-11-20T06:52:31.350Z,252.00
2017-11-20T06:54:24.739Z,280.00
2017-11-20T06:55:24.727Z,288.00
2017-11-20T06:57:18.100Z,296.00
2017-11-20T06:58:18.102Z,308.00
2017-11-20T07:00:11.532Z,328.00
2017-11-20T07:01:11.508Z,356.00
2017-11-20T07:03:04.859Z,428.00
2017-11-20T07:04:04.866Z,476.00
2017-11-20T07:05:58.272Z,516.00
2017-11-20T07:06:58.266Z,516.00
2017-11-20T07:08:51.649Z,528.00
2017-11-20T07:09:51.634Z,540.00
2017-11-20T07:11:45.058Z,556.00
2017-11-20T07:12:45.066Z,568.00
2017-11-20T07:14:38.446Z,624.00
2017-11-20T07:15:38.447Z,664.00
2017-11-20T07:17:31.790Z,692.00
2017-11-20T07:18:31.788Z,668.00
2017-11-20T07:20:25.165Z,624.00
2017-11-20T07:21:25.174Z,628.00
2017-11-20T07:23:18.567Z,652.00
2017-11-20T07:24:18.582Z,680.00
2017-11-20T07:26:11.932Z,768.00
2017-11-20T07:27:11.936Z,804.00
2017-11-20T07:29:05.329Z,804.00
2017-11-20T07:30:05.324Z,788.00
2017-11-20T07:31:58.721Z,752.00
2017-11-20T07:32:58.700Z,752.00
2017-11-20T07:34:53.046Z,760.00
2017-11-20T07:35:53.053Z,760.00
2017-11-20T07:37:46.499Z,804.00
2017-11-20T07:38:46.447Z,848.00
2017-11-20T07:40:39.837Z,916.00
2017-11-20T07:41:39.821Z,944.00
2017-11-20T07:43:33.201Z,976.00
2017-11-20T07:44:33.202Z,996.00
2017-11-20T07:46:26.571Z,1044.00
2017-11-20T07:47:26.608Z,1076.00
2017-11-20T07:49:19.957Z,1136.00
2017-11-20T07:50:19.964Z,1176.00
2017-11-20T07:52:13.356Z,1264.00
2017-11-20T07:53:13.341Z,1308.00
2017-11-20T07:55:06.714Z,1416.00
2017-11-20T07:56:06.700Z,1496.00
2017-11-20T07:58:00.077Z,1672.00
2017-11-20T07:59:00.081Z,1756.00
2017-11-20T08:00:53.480Z,1872.00
2017-11-20T08:01:53.472Z,1832.00
2017-11-20T08:03:46.870Z,1732.00
2017-11-20T08:04:46.879Z,1724.00
2017-11-20T08:06:40.217Z,1740.00
2017-11-20T08:07:40.210Z,1764.00
2017-11-20T08:09:33.636Z,1820.00
2017-11-20T08:10:33.593Z,1836.00
2017-11-20T08:12:26.985Z,1876.00
2017-11-20T08:13:26.976Z,1916.00
2017-11-20T08:15:20.395Z,2000.00
2017-11-20T08:16:20.373Z,2036.00
2017-11-20T08:18:13.798Z,2100.00
2017-11-20T08:19:13.816Z,2148.00
2017-11-20T08:21:07.184Z,2244.00
2017-11-20T08:22:07.164Z,2252.00
2017-11-20T08:24:00.584Z,2212.00
2017-11-20T08:25:00.571Z,2200.00
2017-11-20T08:26:54.949Z,2208.00
2017-11-20T08:27:54.931Z,2220.00
2017-11-20T08:29:48.339Z,2240.00
2017-11-20T08:30:48.337Z,2236.00
2017-11-20T08:32:41.692Z,2188.00
2017-11-20T08:33:41.678Z,2136.00
2017-11-20T08:35:35.023Z,2020.00
2017-11-20T08:36:35.068Z,1976.00
2017-11-20T08:38:28.471Z,1884.00
2017-11-20T08:39:28.434Z,1856.00
2017-11-20T08:41:21.884Z,1884.00
2017-11-20T08:42:21.824Z,1916.00
2017-11-20T08:44:15.188Z,1924.00
2017-11-20T08:45:15.234Z,1908.00
2017-11-20T08:47:08.615Z,1900.00
2017-11-20T08:48:08.637Z,1920.00
2017-11-20T08:50:02.038Z,2000.00
2017-11-20T08:51:01.995Z,2036.00
2017-11-20T08:52:55.420Z,2052.00
2017-11-20T08:53:55.367Z,2040.00
2017-11-20T08:55:48.788Z,2044.00
2017-11-20T08:56:48.781Z,2052.00
2017-11-20T08:58:42.179Z,2048.00
2017-11-20T08:59:42.149Z,2052.00
2017-11-20T09:01:35.580Z,2088.00
2017-11-20T09:02:35.544Z,2136.00
2017-11-20T09:04:28.962Z,2236.00
2017-11-20T09:05:29.022Z,2296.00
2017-11-20T09:07:22.352Z,2452.00
2017-11-20T09:08:22.334Z,2476.00
2017-11-20T09:10:15.700Z,2484.00
2017-11-20T09:11:15.684Z,2488.00
2017-11-20T09:13:09.100Z,2520.00
2017-11-20T09:14:09.089Z,2524.00
2017-11-20T09:16:02.436Z,2448.00
2017-11-20T09:17:02.563Z,2404.00
2017-11-20T09:18:55.829Z,2288.00
2017-11-20T09:19:55.853Z,2248.00
2017-11-20T09:21:49.215Z,2220.00
2017-11-20T09:22:49.226Z,2264.00
2017-11-20T09:24:42.598Z,2360.00
2017-11-20T09:25:42.646Z,2428.00
2017-11-20T09:27:36.036Z,2472.00
2017-11-20T09:28:35.983Z,2468.00
2017-11-20T09:30:29.459Z,2440.00
2017-11-20T09:31:29.397Z,2384.00
2017-11-20T09:33:22.804Z,2264.00
2017-11-20T09:34:22.792Z,2308.00
2017-11-20T09:36:16.182Z,2460.00
2017-11-20T09:37:16.180Z,2560.00
2017-11-20T09:39:09.615Z,2756.00
2017-11-20T09:40:09.572Z,2788.00
2017-11-20T09:42:03.014Z,2836.00
2017-11-20T09:43:02.948Z,2904.00
2017-11-20T09:44:56.400Z,3008.00
2017-11-20T09:45:56.396Z,3040.00
2017-11-20T09:47:49.803Z,2916.00
2017-11-20T09:48:49.762Z,2924.00
2017-11-20T09:50:43.171Z,2976.00
2017-11-20T09:51:43.153Z,2964.00
2017-11-20T09:53:36.607Z,3056.00
2017-11-20T09:54:36.586Z,3052.00
2017-11-20T09:56:30.030Z,3180.00
2017-11-20T09:57:29.969Z,3228.00
2017-11-20T09:59:23.384Z,3172.00
2017-11-20T10:00:23.382Z,3208.00
2017-11-20T10:02:16.787Z,3328.00
2017-11-20T10:03:16.796Z,3268.00
2017-11-20T10:05:10.207Z,3080.00
2017-11-20T10:06:10.130Z,2848.00
2017-11-20T10:08:03.543Z,2524.00
2017-11-20T10:09:03.563Z,2420.00
2017-11-20T10:10:56.912Z,2244.00
2017-11-20T10:11:56.927Z,2232.00
2017-11-20T10:13:50.302Z,2040.00
2017-11-20T10:14:50.346Z,1936.00
2017-11-20T10:16:43.697Z,1808.00
2017-11-20T10:17:43.733Z,1864.00
2017-11-20T10:19:38.675Z,1808.00
2017-11-20T10:20:38.105Z,1860.00
2017-11-20T10:22:31.536Z,1940.00
2017-11-20T10:23:31.498Z,2032.00
2017-11-20T10:25:25.954Z,2068.00
2017-11-20T10:26:25.966Z,2176.00
2017-11-20T10:28:19.322Z,2364.00
2017-11-20T10:29:19.306Z,2344.00
2017-11-20T10:31:12.666Z,2092.00
2017-11-20T10:32:12.673Z,2072.00
2017-11-20T10:34:06.065Z,2000.00
2017-11-20T10:35:06.060Z,2012.00
2017-11-20T10:36:59.493Z,1964.00
2017-11-20T10:37:59.446Z,1992.00
2017-11-20T10:39:52.823Z,2188.00
2017-11-20T10:40:52.860Z,2252.00
2017-11-20T10:42:46.198Z,2388.00
2017-11-20T10:43:46.223Z,2516.00
2017-11-20T10:45:39.657Z,2812.00
2017-11-20T10:46:39.642Z,2852.00
2017-11-20T10:48:33.040Z,3044.00
2017-11-20T10:49:33.038Z,3100.00
2017-11-20T10:51:26.381Z,2988.00
2017-11-20T10:52:26.403Z,2932.00
2017-11-20T10:54:20.784Z,3108.00
2017-11-20T10:55:20.773Z,3084.00
2017-11-20T10:57:14.143Z,3176.00
2017-11-20T10:58:14.167Z,3140.00
2017-11-20T11:00:07.546Z,3080.00
2017-11-20T11:01:07.550Z,2980.00
2017-11-20T11:03:00.898Z,2960.00
2017-11-20T11:04:00.949Z,2992.00
2017-11-20T11:05:54.373Z,2924.00
2017-11-20T11:06:54.423Z,2948.00
2017-11-20T11:08:47.724Z,2904.00
2017-11-20T11:09:47.761Z,2872.00
2017-11-20T11:11:41.135Z,2952.00
2017-11-20T11:12:41.134Z,2812.00
2017-11-20T11:14:34.565Z,2800.00
2017-11-20T11:15:34.537Z,2848.00
2017-11-20T11:17:27.911Z,2864.00
2017-11-20T11:18:27.917Z,2840.00
2017-11-20T11:20:22.376Z,2736.00
2017-11-20T11:21:22.376Z,2716.00
2017-11-20T11:23:15.661Z,2608.00
2017-11-20T11:24:15.684Z,2604.00
2017-11-20T11:26:09.060Z,2472.00
2017-11-20T11:27:09.088Z,2456.00
2017-11-20T11:29:02.589Z,2452.00
2017-11-20T11:30:02.567Z,2464.00
2017-11-20T11:31:56.898Z,2420.00
2017-11-20T11:32:56.840Z,2376.00
2017-11-20T11:34:50.254Z,2288.00
2017-11-20T11:35:50.261Z,2240.00
2017-11-20T11:37:43.634Z,2212.00
2017-11-20T11:38:43.606Z,2200.00
2017-11-20T11:40:37.004Z,2180.00
2017-11-20T11:41:36.999Z,2152.00
2017-11-20T11:43:30.396Z,2116.00
2017-11-20T11:44:30.385Z,2172.00
2017-11-20T11:46:23.793Z,2160.00
2017-11-20T11:47:23.797Z,2188.00
2017-11-20T11:49:17.149Z,2244.00
2017-11-20T11:50:17.190Z,2248.00
2017-11-20T11:52:10.512Z,2288.00
2017-11-20T11:53:10.574Z,2324.00
2017-11-20T11:55:03.949Z,2412.00
2017-11-20T11:56:03.971Z,2424.00
2017-11-20T11:57:57.367Z,2400.00
2017-11-20T11:58:57.365Z,2400.00
2017-11-20T12:00:50.697Z,2480.00
2017-11-20T12:01:50.718Z,2508.00
2017-11-20T12:03:44.115Z,2416.00
2017-11-20T12:04:44.104Z,2352.00
2017-11-20T12:06:38.514Z,2276.00
2017-11-20T12:07:38.500Z,2204.00
2017-11-20T12:09:31.901Z,1964.00
2017-11-20T12:10:31.883Z,1848.00
2017-11-20T12:12:25.233Z,1780.00
2017-11-20T12:13:25.280Z,1860.00
2017-11-20T12:15:18.681Z,2260.00
2017-11-20T12:16:18.643Z,2512.00
2017-11-20T12:18:12.015Z,2828.00
2017-11-20T12:19:12.096Z,2804.00
2017-11-20T12:21:05.431Z,3004.00
2017-11-20T12:22:05.403Z,3164.00
2017-11-20T12:23:58.825Z,3096.00
2017-11-20T12:24:58.854Z,2968.00
2017-11-20T12:26:52.255Z,2796.00
2017-11-20T12:27:52.216Z,2768.00
2017-11-20T12:29:45.630Z,2944.00
2017-11-20T12:30:45.624Z,3040.00
2017-11-20T12:32:39.050Z,2880.00
2017-11-20T12:33:38.981Z,2576.00
2017-11-20T12:35:33.360Z,2380.00
2017-11-20T12:36:33.404Z,2444.00
2017-11-20T12:38:26.767Z,2608.00
2017-11-20T12:39:26.785Z,2732.00
2017-11-20T12:41:20.158Z,2604.00
2017-11-20T12:42:20.167Z,2440.00
2017-11-20T12:44:13.621Z,1972.00
2017-11-20T12:45:13.562Z,1988.00
2017-11-20T12:47:06.946Z,2160.00
2017-11-20T12:48:06.964Z,2216.00
2017-11-20T12:50:00.346Z,2008.00
2017-11-20T12:51:00.347Z,1904.00
2017-11-20T12:52:53.795Z,1800.00
2017-11-20T12:53:53.782Z,1784.00
2017-11-20T12:55:47.095Z,1840.00
2017-11-20T12:56:47.147Z,1924.00
2017-11-20T12:58:40.548Z,2232.00
2017-11-20T12:59:40.561Z,2284.00
2017-11-20T13:01:33.907Z,2404.00
2017-11-20T13:02:33.946Z,2472.00
2017-11-20T13:04:27.346Z,2536.00
2017-11-20T13:05:27.301Z,2376.00
2017-11-20T13:07:20.695Z,2012.00
2017-11-20T13:08:20.751Z,1964.00
2017-11-20T13:10:14.094Z,1724.00
2017-11-20T13:11:14.116Z,1748.00
2017-11-20T13:13:08.493Z,1920.00
2017-11-20T13:14:08.530Z,2052.00
2017-11-20T13:16:01.895Z,2076.00
2017-11-20T13:17:01.850Z,1856.00
2017-11-20T13:18:55.273Z,1440.00
2017-11-20T13:19:55.267Z,1348.00
2017-11-20T13:21:48.622Z,1328.00
2017-11-20T13:22:48.621Z,1292.00
2017-11-20T13:24:42.065Z,1196.00
2017-11-20T13:25:42.067Z,1252.00
2017-11-20T13:27:35.524Z,1556.00
2017-11-20T13:28:35.447Z,1740.00
2017-11-20T13:30:28.796Z,1892.00
2017-11-20T13:31:28.912Z,1800.00
2017-11-20T13:33:23.262Z,1412.00
2017-11-20T13:34:23.286Z,1344.00
2017-11-20T13:36:16.613Z,1248.00
2017-11-20T13:37:16.585Z,1180.00
2017-11-20T13:39:10.015Z,1184.00
2017-11-20T13:40:09.993Z,1200.00
2017-11-20T13:42:03.472Z,1116.00
2017-11-20T13:43:03.423Z,1072.00
2017-11-20T13:44:57.810Z,1084.00
2017-11-20T13:45:57.769Z,1052.00
2017-11-20T13:47:51.182Z,1000.00
2017-11-20T13:48:51.189Z,1000.00
2017-11-20T13:50:44.630Z,980.00
2017-11-20T13:51:44.655Z,948.00
2017-11-20T13:53:37.997Z,952.00
2017-11-20T13:54:37.994Z,992.00
2017-11-20T13:56:39.043Z,1096.00
2017-11-20T13:57:31.530Z,1148.00
2017-11-20T13:59:25.796Z,1172.00
2017-11-20T14:00:25.756Z,1172.00
2017-11-20T14:02:19.222Z,1256.00
2017-11-20T14:03:19.198Z,1268.00
2017-11-20T14:05:12.533Z,1316.00
2017-11-20T14:06:12.500Z,1368.00
2017-11-20T14:08:05.970Z,1424.00
2017-11-20T14:09:05.919Z,1500.00
2017-11-20T14:10:59.304Z,1572.00
2017-11-20T14:11:59.343Z,1628.00
2017-11-20T14:13:52.670Z,1612.00
2017-11-20T14:14:52.688Z,1480.00
2017-11-20T14:16:46.062Z,1316.00
2017-11-20T14:17:46.089Z,1280.00
2017-11-20T14:19:39.457Z,1104.00
2017-11-20T14:20:39.474Z,972.00
2017-11-20T14:22:32.813Z,876.00
2017-11-20T14:23:32.794Z,840.00
2017-11-20T14:25:26.220Z,840.00
2017-11-20T14:26:26.192Z,860.00
2017-11-20T14:28:19.582Z,936.00
2017-11-20T14:29:19.586Z,992.00
2017-11-20T14:31:12.941Z,908.00
2017-11-20T14:32:12.967Z,840.00
2017-11-20T14:34:06.361Z,732.00
2017-11-20T14:35:06.368Z,704.00
2017-11-20T14:36:59.741Z,692.00
2017-11-20T14:37:59.744Z,736.00
2017-11-20T14:39:53.153Z,856.00
2017-11-20T14:40:53.143Z,928.00
2017-11-20T14:42:46.478Z,1032.00
2017-11-20T14:43:46.533Z,1036.00
2017-11-20T14:45:39.913Z,956.00
2017-11-20T14:46:39.884Z,884.00
2017-11-20T14:48:33.333Z,772.00
2017-11-20T14:49:33.305Z,732.00
2017-11-20T14:51:26.647Z,652.00
2017-11-20T14:52:26.699Z,616.00
2017-11-20T14:54:20.070Z,600.00
2017-11-20T14:55:20.089Z,608.00
2017-11-20T14:57:13.482Z,560.00
2017-11-20T14:58:13.460Z,480.00
2017-11-20T15:00:07.130Z,344.00
2017-11-20T15:01:06.875Z,308.00
2017-11-20T15:03:00.223Z,244.00
2017-11-20T15:04:00.247Z,212.00
2017-11-20T15:05:53.624Z,196.00
2017-11-20T15:06:53.683Z,200.00
2017-11-20T15:08:47.045Z,196.00
2017-11-20T15:09:47.017Z,192.00
2017-11-20T15:11:40.381Z,164.00
2017-11-20T15:12:40.403Z,164.00
2017-11-20T15:14:33.812Z,156.00
2017-11-20T15:15:33.773Z,152.00
2017-11-20T15:17:27.226Z,132.00
2017-11-20T15:18:27.202Z,120.00
2017-11-20T15:20:20.588Z,120.00
2017-11-20T15:21:20.586Z,124.00
2017-11-20T15:23:14.021Z,108.00
2017-11-20T15:24:13.994Z,104.00
2017-11-20T15:26:07.351Z,96.00
2017-11-20T15:27:07.363Z,92.00
2017-11-20T15:29:00.747Z,76.00
2017-11-20T15:30:00.736Z,68.00
2017-11-20T15:31:54.112Z,60.00
2017-11-20T15:32:54.120Z,52.00
2017-11-20T15:34:47.510Z,52.00
2017-11-20T15:35:47.529Z,52.00
2017-11-20T15:37:40.893Z,44.00
2017-11-20T15:38:40.884Z,40.00
2017-11-20T15:40:34.288Z,28.00
2017-11-20T15:41:34.281Z,24.00
2017-11-20T15:43:27.733Z,20.00
2017-11-20T15:44:27.699Z,20.00
2017-11-20T15:46:21.088Z,16.00
2017-11-20T15:47:21.081Z,16.00
2017-11-20T15:49:14.432Z,12.00
2017-11-20T15:50:14.458Z,8.00
2017-11-20T15:52:07.850Z,4.00
2017-11-20T15:53:07.852Z,4.00
2017-11-20T15:55:01.216Z,4.00
2017-11-20T15:56:01.264Z,4.00
2017-11-20T15:57:54.610Z,4.00
2017-11-20T15:58:54.588Z,4.00
2017-11-20T16:00:48.031Z,0.00
2017-11-20T16:01:48.011Z,0.00
2017-11-20T16:03:41.346Z,0.00
2017-11-20T16:04:41.384Z,0.00
2017-11-20T16:06:34.774Z,0.00
2017-11-20T16:07:34.785Z,0.00
2017-11-20T16:09:28.183Z,0.00
2017-11-20T16:10:28.143Z,0.00
2017-11-20T16:12:21.543Z,0.00
2017-11-20T16:13:21.552Z,0.00
2017-11-20T16:15:14.921Z,0.00
2017-11-20T16:16:14.883Z,0.00
2017-11-20T16:18:08.320Z,0.00
2017-11-20T16:19:08.355Z,0.00
2017-11-20T16:21:01.676Z,0.00
2017-11-20T16:22:01.755Z,0.00
2017-11-20T16:23:55.096Z,0.00
2017-11-20T16:24:55.121Z,0.00
2017-11-20T16:26:48.459Z,0.00
2017-11-20T16:27:48.447Z,0.00
2017-11-20T16:29:41.891Z,0.00
2017-11-20T16:30:41.866Z,0.00
2017-11-20T16:32:35.245Z,0.00
2017-11-20T16:33:35.313Z,0.00
2017-11-20T16:35:28.736Z,0.00
2017-11-20T16:36:28.652Z,0.00
2017-11-20T16:38:21.996Z,0.00
2017-11-20T16:39:22.006Z,0.00
2017-11-20T16:41:15.389Z,0.00
2017-11-20T16:42:15.375Z,0.00
2017-11-20T16:44:08.754Z,0.00
2017-11-20T16:45:08.766Z,0.00
2017-11-20T16:47:02.156Z,0.00
2017-11-20T16:48:02.143Z,0.00
2017-11-20T16:49:55.548Z,0.00
2017-11-20T16:50:55.543Z,0.00
2017-11-20T16:52:48.931Z,0.00
2017-11-20T16:53:48.902Z,0.00
2017-11-20T16:55:42.377Z,0.00
2017-11-20T16:56:42.365Z,0.00
2017-11-20T16:58:35.661Z,0.00
2017-11-20T16:59:35.667Z,0.00
2017-11-20T17:01:29.071Z,0.00
2017-11-20T17:02:29.070Z,0.00
2017-11-20T17:04:22.437Z,0.00
2017-11-20T17:05:22.468Z,0.00
2017-11-20T17:07:15.836Z,0.00
2017-11-20T17:08:15.817Z,0.00
2017-11-20T17:10:09.244Z,0.00
2017-11-20T17:11:09.247Z,0.00
2017-11-20T17:13:02.649Z,0.00
2017-11-20T17:14:02.633Z,0.00
2017-11-20T17:15:56.012Z,0.00
2017-11-20T17:16:56.012Z,0.00
2017-11-20T17:18:48.916Z,0.00
2017-11-20T17:19:48.905Z,0.00
2017-11-20T17:21:42.290Z,0.00
2017-11-20T17:22:42.282Z,0.00
2017-11-20T17:24:35.681Z,0.00
2017-11-20T17:25:35.714Z,0.00
2017-11-20T17:27:29.042Z,0.00
2017-11-20T17:28:29.051Z,0.00
2017-11-20T17:30:22.445Z,0.00
2017-11-20T17:31:22.427Z,0.00
2017-11-20T17:33:15.830Z,0.00
2017-11-20T17:34:15.807Z,0.00
2017-11-20T17:36:09.251Z,0.00
2017-11-20T17:37:09.243Z,0.00
2017-11-20T17:39:02.642Z,0.00
2017-11-20T17:40:02.626Z,0.00
2017-11-20T17:41:56.008Z,0.00
2017-11-20T17:42:56.014Z,0.00
2017-11-20T17:44:49.406Z,0.00
2017-11-20T17:45:49.388Z,0.00
2017-11-20T17:47:42.768Z,0.00
2017-11-20T17:48:42.769Z,0.00
2017-11-20T17:50:36.182Z,0.00
2017-11-20T17:51:36.173Z,0.00
2017-11-20T17:53:29.558Z,0.00
2017-11-20T17:54:29.542Z,0.00
2017-11-20T17:56:22.944Z,0.00
2017-11-20T17:57:22.939Z,0.00
2017-11-20T17:59:16.321Z,0.00
2017-11-20T18:00:16.301Z,0.00
2017-11-20T18:02:09.687Z,0.00
2017-11-20T18:03:09.818Z,0.00
2017-11-20T18:05:03.101Z,0.00
2017-11-20T18:06:03.081Z,0.00
2017-11-20T18:07:56.487Z,0.00
2017-11-20T18:08:56.473Z,0.00
2017-11-20T18:10:49.911Z,0.00
2017-11-20T18:11:49.884Z,0.00
2017-11-20T18:13:43.273Z,0.00
2017-11-20T18:14:43.257Z,0.00
2017-11-20T18:16:36.659Z,0.00
2017-11-20T18:17:36.644Z,0.00
2017-11-20T18:19:30.082Z,0.00
2017-11-20T18:20:30.079Z,0.00
2017-11-20T18:22:23.430Z,0.00
2017-11-20T18:23:24.341Z,0.00
2017-11-20T18:25:17.871Z,0.00